createdAt,value
2022-12-13T07:47:47.397Z,7.97
2022-12-13T07:52:50.704Z,7.53
2022-12-13T07:57:53.625Z,7.20
2022-12-13T08:02:55.630Z,8.00
2022-12-13T08:07:57.738Z,7.57
2022-12-13T08:13:02.817Z,7.80
2022-12-13T08:18:05.082Z,7.80
2022-12-13T08:23:07.174Z,7.53
2022-12-13T08:28:09.226Z,7.28
2022-12-13T08:33:11.265Z,7.73
2022-12-13T08:38:14.092Z,7.27
2022-12-13T08:43:25.607Z,7.07
2022-12-13T08:48:28.227Z,8.15
2022-12-13T08:53:40.541Z,7.37
2022-12-13T08:58:43.302Z,7.75
2022-12-13T09:03:45.387Z,6.18
2022-12-13T09:08:51.452Z,7.33
2022-12-13T09:13:54.134Z,7.07
2022-12-13T09:19:25.202Z,6.50
2022-12-13T09:24:28.699Z,6.30
2022-12-13T09:29:39.389Z,6.50
2022-12-13T09:34:41.938Z,7.60
2022-12-13T09:39:48.162Z,7.12
2022-12-13T09:45:04.117Z,6.13
2022-12-13T09:50:15.022Z,6.00
2022-12-13T09:55:25.601Z,5.80
2022-12-13T10:00:35.201Z,5.93
2022-12-13T10:05:40.254Z,5.65
2022-12-13T10:10:43.828Z,5.50
2022-12-13T10:15:54.578Z,5.70
2022-12-13T10:20:57.427Z,6.03
2022-12-13T10:26:03.162Z,5.07
2022-12-13T10:31:07.722Z,5.70
2022-12-13T10:36:16.052Z,5.13
2022-12-13T10:41:33.943Z,5.47
2022-12-13T10:46:38.371Z,5.68
2022-12-13T10:51:41.447Z,6.00
2022-12-13T10:56:50.033Z,5.90
2022-12-13T11:01:52.351Z,5.90
2022-12-13T11:06:54.815Z,6.50
2022-12-13T11:12:14.880Z,6.00
2022-12-13T11:17:25.083Z,5.72
2022-12-13T11:22:29.883Z,5.95
2022-12-13T11:27:34.998Z,5.37
2022-12-13T11:32:44.784Z,5.75
2022-12-13T11:38:00.702Z,5.47
2022-12-13T11:43:18.005Z,5.90
2022-12-13T11:48:25.962Z,5.90
2022-12-13T11:53:34.474Z,6.28
2022-12-13T11:59:07.083Z,6.30
2022-12-13T12:04:40.985Z,6.17
2022-12-13T12:09:51.797Z,5.93
2022-12-13T12:15:15.319Z,5.90
2022-12-13T12:20:26.754Z,6.50
2022-12-13T12:25:37.981Z,6.07
2022-12-13T12:31:35.706Z,6.28
2022-12-13T12:37:25.640Z,6.23
2022-12-13T12:43:13.940Z,6.25
2022-12-13T12:49:01.729Z,6.28
2022-12-13T12:54:19.002Z,6.50
2022-12-13T12:59:27.306Z,5.80
2022-12-13T13:04:35.799Z,6.28
2022-12-13T13:09:39.674Z,6.03
2022-12-13T13:14:42.803Z,5.73
2022-12-13T13:19:47.026Z,5.80
2022-12-13T13:25:00.944Z,5.53
2022-12-13T13:30:19.262Z,6.70
2022-12-13T13:35:33.490Z,5.15
2022-12-13T13:40:37.820Z,5.05
2022-12-13T13:45:54.730Z,4.57
2022-12-13T13:51:11.638Z,5.50
2022-12-13T13:56:28.968Z,4.82
2022-12-13T14:02:13.680Z,4.32
2022-12-13T14:07:27.663Z,4.60
2022-12-13T14:13:07.522Z,4.50
2022-12-13T14:18:12.640Z,4.12
2022-12-13T14:23:39.201Z,5.13
2022-12-13T14:28:56.657Z,5.15
2022-12-13T14:33:59.851Z,4.78
2022-12-13T14:39:24.504Z,5.70
2022-12-13T14:44:36.147Z,6.13
2022-12-13T14:49:48.651Z,5.72
2022-12-13T14:54:58.115Z,7.25
2022-12-13T15:00:22.277Z,5.97
2022-12-13T15:05:37.369Z,6.95
2022-12-13T15:10:48.666Z,5.53
2022-12-13T15:16:00.110Z,6.40
2022-12-13T15:21:02.521Z,5.47
2022-12-13T15:26:28.016Z,6.55
2022-12-13T15:31:34.564Z,6.97
2022-12-13T15:36:38.612Z,6.70
2022-12-13T15:41:49.654Z,6.65
2022-12-13T15:46:53.267Z,7.15
2022-12-13T15:52:05.099Z,7.40
2022-12-13T15:57:25.797Z,7.87
2022-12-13T16:02:30.061Z,7.00
2022-12-13T16:07:38.033Z,7.20
2022-12-13T16:12:47.938Z,7.50
2022-12-13T16:17:56.441Z,7.18
2022-12-13T16:23:08.967Z,7.00
2022-12-13T16:28:13.735Z,7.37
2022-12-13T16:33:27.301Z,6.68
2022-12-13T16:38:30.130Z,7.15
2022-12-13T16:43:34.986Z,7.40
2022-12-13T16:48:37.345Z,8.43
2022-12-13T16:53:39.472Z,10.95
2022-12-13T16:58:46.214Z,8.80
2022-12-13T17:03:52.871Z,8.32
2022-12-13T17:08:54.937Z,9.25
2022-12-13T17:13:58.519Z,8.77
2022-12-13T17:19:00.578Z,8.50
2022-12-13T17:24:03.106Z,9.85
2022-12-13T17:29:05.180Z,8.63
2022-12-13T17:34:07.254Z,9.60
2022-12-13T17:39:11.158Z,11.23
2022-12-13T17:44:13.244Z,10.77
2022-12-13T17:49:15.403Z,10.37
2022-12-13T17:54:17.451Z,8.93
2022-12-13T17:59:19.631Z,10.38
2022-12-13T18:04:21.680Z,9.63
2022-12-13T18:09:23.709Z,9.57
2022-12-13T18:14:25.799Z,10.70
2022-12-13T18:19:31.929Z,9.95
2022-12-13T18:24:34.107Z,11.10
2022-12-13T18:29:36.226Z,11.05
2022-12-13T18:34:38.291Z,10.65
2022-12-13T18:39:40.337Z,13.13
2022-12-13T18:44:42.389Z,13.43
2022-12-13T18:49:57.152Z,14.35
2022-12-13T18:54:59.208Z,13.80
2022-12-13T19:00:01.292Z,12.97
2022-12-13T19:05:03.404Z,13.62
2022-12-13T19:10:05.826Z,14.57
2022-12-13T19:15:08.127Z,15.83
2022-12-13T19:20:10.930Z,16.40
2022-12-13T19:25:13.662Z,16.65
2022-12-13T19:30:17.727Z,15.97
2022-12-13T19:35:19.784Z,16.37
2022-12-13T19:40:21.853Z,17.17
2022-12-13T19:45:23.985Z,14.77
2022-12-13T19:50:26.042Z,16.80
2022-12-13T19:55:28.293Z,16.62
2022-12-13T20:00:30.398Z,17.17
2022-12-13T20:05:32.514Z,16.97
2022-12-13T20:10:36.047Z,15.98
2022-12-13T20:15:38.066Z,14.90
2022-12-13T20:21:09.787Z,16.07
2022-12-13T20:26:06.707Z,15.77
2022-12-13T20:31:11.979Z,15.35
2022-12-13T20:36:26.161Z,16.60
2022-12-13T20:41:31.265Z,16.30
2022-12-13T20:46:33.556Z,16.20
2022-12-13T20:51:37.787Z,17.27
2022-12-13T20:56:40.004Z,17.70
2022-12-13T21:01:44.312Z,18.65
2022-12-13T21:06:51.004Z,19.20
2022-12-13T21:11:53.003Z,18.27
2022-12-13T21:17:00.009Z,19.75
2022-12-13T21:22:02.338Z,19.45
2022-12-13T21:27:04.625Z,19.27
